createdAt,value
2023-03-31T00:00:44.094Z,0.68
2023-03-31T00:01:44.101Z,0.00
2023-03-31T00:02:44.114Z,0.00
2023-03-31T00:03:45.034Z,0.00
2023-03-31T00:04:44.139Z,0.00
2023-03-31T00:05:44.022Z,1.64
2023-03-31T00:06:44.031Z,0.68
2023-03-31T00:07:44.014Z,1.75
2023-03-31T00:08:43.989Z,0.47
2023-03-31T00:09:43.969Z,0.58
2023-03-31T00:10:43.957Z,1.11
2023-03-31T00:11:43.947Z,1.33
2023-03-31T00:12:43.929Z,1.85
2023-03-31T00:14:43.942Z,0.00
2023-03-31T00:15:43.889Z,0.90
2023-03-31T00:16:43.883Z,0.00
2023-03-31T00:17:43.914Z,1.43
2023-03-31T00:18:43.850Z,0.00
2023-03-31T00:19:43.833Z,0.00
2023-03-31T00:20:43.820Z,0.00
2023-03-31T00:21:43.809Z,0.00
2023-03-31T00:22:43.796Z,1.22
2023-03-31T00:23:43.788Z,0.00
2023-03-31T00:24:43.769Z,0.00
2023-03-31T00:25:43.754Z,0.00
2023-03-31T00:26:43.767Z,0.00
2023-03-31T00:27:43.729Z,0.00
2023-03-31T00:28:43.719Z,0.68
2023-03-31T00:29:43.702Z,0.00
2023-03-31T00:30:43.688Z,1.96
2023-03-31T00:31:43.678Z,0.00
2023-03-31T00:32:43.685Z,0.00
2023-03-31T00:33:43.676Z,0.00
2023-03-31T00:34:43.636Z,0.00
2023-03-31T00:35:43.710Z,0.00
2023-03-31T00:36:43.623Z,0.00
2023-03-31T00:37:43.598Z,0.00
2023-03-31T00:38:43.585Z,0.00
2023-03-31T00:39:43.574Z,0.00
2023-03-31T00:40:43.558Z,0.00
2023-03-31T00:41:43.541Z,0.00
2023-03-31T00:42:43.540Z,0.00
2023-03-31T00:43:43.515Z,0.00
2023-03-31T00:44:43.508Z,0.00
2023-03-31T00:45:43.558Z,0.00
2023-03-31T00:46:43.481Z,0.00
2023-03-31T00:47:43.492Z,0.00
2023-03-31T00:48:43.449Z,1.85
2023-03-31T00:49:43.460Z,0.00
2023-03-31T00:50:43.424Z,0.47
2023-03-31T00:51:43.409Z,0.79
2023-03-31T00:52:43.396Z,0.00
2023-03-31T00:53:43.382Z,0.68
2023-03-31T00:54:43.373Z,1.11
2023-03-31T00:55:43.356Z,0.00
2023-03-31T00:56:43.375Z,0.47
2023-03-31T00:57:43.327Z,0.00
2023-03-31T00:58:43.317Z,0.00
2023-03-31T00:59:43.303Z,0.00
2023-03-31T01:00:43.289Z,0.00
2023-03-31T01:01:43.400Z,0.00
2023-03-31T01:02:43.284Z,0.00
2023-03-31T01:03:43.349Z,0.00
2023-03-31T01:04:43.236Z,0.00
2023-03-31T01:05:43.253Z,0.00
2023-03-31T01:06:43.218Z,0.00
2023-03-31T01:07:43.194Z,0.00
2023-03-31T01:08:43.190Z,0.00
2023-03-31T01:09:43.170Z,0.00
2023-03-31T01:10:43.159Z,0.00
2023-03-31T01:11:43.144Z,0.00
2023-03-31T01:12:43.130Z,0.00
2023-03-31T01:13:43.119Z,0.00
2023-03-31T01:14:43.106Z,0.00
2023-03-31T01:15:43.097Z,0.00
2023-03-31T01:16:43.145Z,0.00
2023-03-31T01:17:43.308Z,0.00
2023-03-31T01:18:43.101Z,0.00
2023-03-31T01:19:43.036Z,0.00
2023-03-31T01:20:43.023Z,0.00
2023-03-31T01:21:43.039Z,0.00
2023-03-31T01:22:43.000Z,0.00
2023-03-31T01:23:42.986Z,0.00
2023-03-31T01:24:42.971Z,0.00
2023-03-31T01:25:42.970Z,0.00
2023-03-31T01:26:42.951Z,0.00
2023-03-31T01:27:42.932Z,0.00
2023-03-31T01:28:42.917Z,0.00
2023-03-31T01:29:42.903Z,0.00
2023-03-31T01:30:42.891Z,0.00
2023-03-31T01:31:42.890Z,0.00
2023-03-31T01:32:42.888Z,0.00
2023-03-31T01:33:42.851Z,0.00
2023-03-31T01:34:42.839Z,0.00
2023-03-31T01:35:42.878Z,0.79
2023-03-31T01:36:42.813Z,0.00
2023-03-31T01:37:42.867Z,0.68
2023-03-31T01:38:42.796Z,1.85
2023-03-31T01:39:42.772Z,0.79
2023-03-31T01:40:42.758Z,1.33
2023-03-31T01:41:42.750Z,0.58
2023-03-31T01:42:42.731Z,0.58
2023-03-31T01:43:42.717Z,3.90
2023-03-31T01:44:42.708Z,4.10
2023-03-31T01:45:42.694Z,2.38
2023-03-31T01:46:42.747Z,0.00
2023-03-31T01:47:42.693Z,0.00
2023-03-31T01:48:42.650Z,0.58
2023-03-31T01:49:42.642Z,1.11
2023-03-31T01:50:42.626Z,1.64
2023-03-31T01:51:42.640Z,0.47
2023-03-31T01:52:42.599Z,1.96
2023-03-31T01:53:42.613Z,1.64
2023-03-31T01:54:42.578Z,1.01
2023-03-31T01:55:42.559Z,0.00
2023-03-31T01:56:42.556Z,1.33
2023-03-31T01:57:42.537Z,0.00
2023-03-31T01:58:42.523Z,1.43
2023-03-31T01:59:42.507Z,1.01
2023-03-31T02:00:42.497Z,0.47
2023-03-31T02:01:42.542Z,0.00
2023-03-31T02:02:42.559Z,0.00
2023-03-31T02:03:42.532Z,3.20
2023-03-31T02:04:42.448Z,0.00
2023-03-31T02:05:42.432Z,0.00
2023-03-31T02:06:42.418Z,0.00
2023-03-31T02:07:42.403Z,0.00
2023-03-31T02:08:42.395Z,0.00
2023-03-31T02:09:42.420Z,0.00
2023-03-31T02:10:42.366Z,0.79
2023-03-31T02:11:42.350Z,0.00
2023-03-31T02:12:42.339Z,1.11
2023-03-31T02:13:42.338Z,0.00
2023-03-31T02:14:42.312Z,0.00
2023-03-31T02:15:42.305Z,0.00
2023-03-31T02:16:42.296Z,0.00
2023-03-31T02:17:42.339Z,0.00
2023-03-31T02:18:42.264Z,0.00
2023-03-31T02:19:42.248Z,0.00
2023-03-31T02:20:42.239Z,0.00
2023-03-31T02:21:42.219Z,0.00
2023-03-31T02:22:42.209Z,0.00
2023-03-31T02:23:42.200Z,0.00
2023-03-31T02:24:42.180Z,0.00
2023-03-31T02:25:42.195Z,0.00
2023-03-31T02:26:42.160Z,0.00
2023-03-31T02:27:42.177Z,0.00
2023-03-31T02:28:42.126Z,0.00
2023-03-31T02:29:42.110Z,0.00
2023-03-31T02:30:42.104Z,0.00
2023-03-31T02:31:42.159Z,0.00
2023-03-31T02:32:42.120Z,0.00
2023-03-31T02:33:42.074Z,0.00
2023-03-31T02:34:42.047Z,0.00
2023-03-31T02:35:42.082Z,0.00
2023-03-31T02:36:42.023Z,0.00
2023-03-31T02:37:42.007Z,0.00
2023-03-31T02:38:42.024Z,0.00
2023-03-31T02:39:41.983Z,0.00
2023-03-31T02:40:41.970Z,0.00
2023-03-31T02:41:41.987Z,0.00
2023-03-31T02:42:41.948Z,0.00
2023-03-31T02:43:41.931Z,0.00
2023-03-31T02:44:41.940Z,0.00
2023-03-31T02:45:41.936Z,0.00
2023-03-31T02:46:41.893Z,0.00
2023-03-31T02:47:41.904Z,0.00
2023-03-31T02:48:41.867Z,0.00
2023-03-31T02:49:41.856Z,0.00
2023-03-31T02:50:41.839Z,0.00
2023-03-31T02:51:41.826Z,0.00
2023-03-31T02:52:41.818Z,0.00
2023-03-31T02:53:41.802Z,0.00
2023-03-31T02:54:41.792Z,0.00
2023-03-31T02:55:41.773Z,0.00
2023-03-31T02:56:41.852Z,0.00
2023-03-31T02:57:41.773Z,0.00
2023-03-31T02:58:41.746Z,0.00
2023-03-31T02:59:41.722Z,0.00
2023-03-31T03:00:41.719Z,0.00
2023-03-31T03:01:41.757Z,0.79
2023-03-31T03:02:41.780Z,0.00
2023-03-31T03:03:41.669Z,0.00
2023-03-31T03:04:41.661Z,0.00
2023-03-31T03:05:41.641Z,0.79
2023-03-31T03:06:41.640Z,0.00
2023-03-31T03:07:41.616Z,0.00
2023-03-31T03:08:41.601Z,0.00
2023-03-31T03:09:41.588Z,0.00
2023-03-31T03:10:41.575Z,0.00
2023-03-31T03:11:41.568Z,0.00
2023-03-31T03:12:41.547Z,0.00
2023-03-31T03:13:41.557Z,0.00
2023-03-31T03:14:41.520Z,0.68
2023-03-31T03:15:41.513Z,0.00
2023-03-31T03:16:41.567Z,0.00
2023-03-31T03:17:41.510Z,0.00
2023-03-31T03:18:41.469Z,0.00
2023-03-31T03:19:41.455Z,0.00
2023-03-31T03:20:41.445Z,0.79
2023-03-31T03:21:41.429Z,0.00
2023-03-31T03:22:41.420Z,0.00
2023-03-31T03:23:41.407Z,0.00
2023-03-31T03:24:41.387Z,0.00
2023-03-31T03:25:41.375Z,0.00
2023-03-31T03:26:41.368Z,0.00
2023-03-31T03:27:41.351Z,0.00
2023-03-31T03:28:41.333Z,0.00
2023-03-31T03:29:41.349Z,0.00
2023-03-31T03:30:41.327Z,0.00
2023-03-31T03:31:41.292Z,0.00
2023-03-31T03:32:41.332Z,0.00
2023-03-31T03:33:41.271Z,0.00
2023-03-31T03:34:41.270Z,0.00
2023-03-31T03:35:41.285Z,0.00
2023-03-31T03:36:41.235Z,0.00
2023-03-31T03:37:41.228Z,0.00
2023-03-31T03:38:41.204Z,0.00
2023-03-31T03:39:41.194Z,0.00
2023-03-31T03:40:41.172Z,0.00
2023-03-31T03:41:41.183Z,0.00
2023-03-31T03:42:41.148Z,0.00
2023-03-31T03:43:41.146Z,0.00
2023-03-31T03:44:41.126Z,0.00
2023-03-31T03:45:41.141Z,0.00
2023-03-31T03:46:41.110Z,0.00
2023-03-31T03:47:41.115Z,0.00
2023-03-31T03:48:41.084Z,0.00
2023-03-31T03:49:41.058Z,0.00
2023-03-31T03:50:41.039Z,0.00
2023-03-31T03:51:41.031Z,0.00
2023-03-31T03:52:41.012Z,0.00
2023-03-31T03:53:41.001Z,0.00
2023-03-31T03:54:40.984Z,0.00
2023-03-31T03:55:40.971Z,0.00
2023-03-31T03:56:40.960Z,0.00
2023-03-31T03:57:40.943Z,0.00
2023-03-31T03:58:40.931Z,0.00
2023-03-31T03:59:40.917Z,0.00
2023-03-31T04:00:40.906Z,0.00
2023-03-31T04:01:40.964Z,0.00
2023-03-31T04:02:40.971Z,0.00
2023-03-31T04:03:40.866Z,0.00
2023-03-31T04:04:40.915Z,0.00
2023-03-31T04:05:40.837Z,0.00
2023-03-31T04:06:40.820Z,0.00
2023-03-31T04:07:40.827Z,0.00
2023-03-31T04:08:40.801Z,0.00
2023-03-31T04:09:40.786Z,0.00
2023-03-31T04:10:40.766Z,0.00
2023-03-31T04:11:40.762Z,0.00
2023-03-31T04:12:40.740Z,0.00
2023-03-31T04:13:40.727Z,0.00
2023-03-31T04:15:40.700Z,0.00
2023-03-31T04:16:40.847Z,0.00
2023-03-31T04:17:40.716Z,0.00
2023-03-31T04:18:40.660Z,0.00
2023-03-31T04:19:40.651Z,0.68
2023-03-31T04:20:40.628Z,0.00
2023-03-31T04:21:40.619Z,0.00
2023-03-31T04:22:40.783Z,0.00
2023-03-31T04:23:40.593Z,0.00
2023-03-31T04:24:40.577Z,0.00
2023-03-31T04:25:40.565Z,0.00
2023-03-31T04:26:40.549Z,0.00
2023-03-31T04:27:40.547Z,0.00
2023-03-31T04:28:40.523Z,0.00
2023-03-31T04:29:40.511Z,0.00
2023-03-31T04:30:40.497Z,0.00
2023-03-31T04:31:40.555Z,0.00
2023-03-31T04:32:40.492Z,0.00
2023-03-31T04:33:40.494Z,0.58
2023-03-31T04:34:40.441Z,0.00
2023-03-31T04:35:40.461Z,0.00
2023-03-31T04:36:40.414Z,0.00
2023-03-31T04:37:40.403Z,0.00
2023-03-31T04:38:40.386Z,0.00
2023-03-31T04:39:40.375Z,0.00
2023-03-31T04:40:40.360Z,0.00
2023-03-31T04:41:40.355Z,0.00
2023-03-31T04:42:40.334Z,0.00
2023-03-31T04:43:40.330Z,0.00
2023-03-31T04:44:40.313Z,0.00
2023-03-31T04:45:40.334Z,0.00
2023-03-31T04:46:40.281Z,0.00
2023-03-31T04:47:40.336Z,0.00
2023-03-31T04:48:40.255Z,0.00
2023-03-31T04:49:40.268Z,0.00
2023-03-31T04:50:40.234Z,0.00
2023-03-31T04:51:40.216Z,0.00
2023-03-31T04:52:40.210Z,0.00
2023-03-31T04:53:40.190Z,0.00
2023-03-31T04:54:40.181Z,0.00
2023-03-31T04:55:40.162Z,0.00
2023-03-31T04:56:40.151Z,0.00
2023-03-31T04:57:40.138Z,0.00
2023-03-31T04:58:40.172Z,0.00
2023-03-31T04:59:40.112Z,0.00
2023-03-31T05:00:40.100Z,0.00
2023-03-31T05:01:40.146Z,0.00
2023-03-31T05:02:40.160Z,0.00
2023-03-31T05:03:40.129Z,0.00
2023-03-31T05:04:40.054Z,0.00
2023-03-31T05:05:40.063Z,0.00
2023-03-31T05:06:40.034Z,0.00
2023-03-31T05:07:40.025Z,0.00
2023-03-31T05:08:40.011Z,0.00
2023-03-31T05:09:39.989Z,0.00
2023-03-31T05:10:39.975Z,0.00
2023-03-31T05:11:39.969Z,0.00
2023-03-31T05:12:39.951Z,0.00
2023-03-31T05:13:39.952Z,0.68
2023-03-31T05:14:39.926Z,0.00
2023-03-31T05:15:39.922Z,0.00
2023-03-31T05:16:39.966Z,0.00
2023-03-31T05:17:39.913Z,0.00
2023-03-31T05:18:39.878Z,0.00
2023-03-31T05:19:39.868Z,0.00
2023-03-31T05:20:39.853Z,0.00
2023-03-31T05:21:39.869Z,0.00
2023-03-31T05:22:40.801Z,0.00
2023-03-31T05:23:39.822Z,0.00
2023-03-31T05:24:39.805Z,0.00
2023-03-31T05:25:39.793Z,0.00
2023-03-31T05:26:39.784Z,0.00
2023-03-31T05:27:39.766Z,0.00
2023-03-31T05:28:39.751Z,0.00
2023-03-31T05:29:39.741Z,0.00
2023-03-31T05:30:39.735Z,0.00
2023-03-31T05:31:39.761Z,0.00
2023-03-31T05:32:39.726Z,0.00
2023-03-31T05:33:39.693Z,0.00
2023-03-31T05:34:39.677Z,0.00
2023-03-31T05:35:39.690Z,0.68
2023-03-31T05:36:39.652Z,0.00
2023-03-31T05:37:39.678Z,0.79
2023-03-31T05:38:39.633Z,0.00
2023-03-31T05:39:39.628Z,0.00
2023-03-31T05:40:39.604Z,0.00
2023-03-31T05:41:39.595Z,0.00
2023-03-31T05:42:39.576Z,0.00
2023-03-31T05:43:39.611Z,0.00
2023-03-31T05:44:39.546Z,0.00
2023-03-31T05:45:39.548Z,0.00
2023-03-31T05:46:39.562Z,0.00
2023-03-31T05:47:39.569Z,0.00
2023-03-31T05:49:39.488Z,0.00
2023-03-31T05:50:39.487Z,0.00
2023-03-31T05:51:39.474Z,0.00
2023-03-31T05:52:39.449Z,0.00
2023-03-31T05:53:39.463Z,0.00
2023-03-31T05:54:39.439Z,0.00
2023-03-31T05:55:39.412Z,0.00
2023-03-31T05:56:39.400Z,0.00
2023-03-31T05:57:39.395Z,0.00
2023-03-31T05:58:39.376Z,0.00
2023-03-31T05:59:39.363Z,0.00
2023-03-31T06:00:39.348Z,0.00
2023-03-31T06:01:39.459Z,0.00
2023-03-31T06:02:39.416Z,0.00
2023-03-31T06:03:39.401Z,0.00
2023-03-31T06:04:39.349Z,0.00
2023-03-31T06:05:39.289Z,0.00
2023-03-31T06:06:39.274Z,0.00
2023-03-31T06:07:39.262Z,1.22
2023-03-31T06:08:39.245Z,0.00
2023-03-31T06:09:39.260Z,0.00
2023-03-31T06:10:39.225Z,0.00
2023-03-31T06:11:39.213Z,0.00
2023-03-31T06:12:39.224Z,0.00
2023-03-31T06:13:39.188Z,0.00
2023-03-31T06:14:39.172Z,0.00
2023-03-31T06:15:39.257Z,0.00
2023-03-31T06:16:39.159Z,0.00
2023-03-31T06:17:39.210Z,0.00
2023-03-31T06:18:39.122Z,0.00
2023-03-31T06:19:39.114Z,0.00
2023-03-31T06:20:39.101Z,0.00
2023-03-31T06:21:39.091Z,0.00
2023-03-31T06:22:39.086Z,0.00
2023-03-31T06:23:39.064Z,0.00
2023-03-31T06:24:39.045Z,0.00
2023-03-31T06:25:50.364Z,0.00
2023-03-31T06:26:41.024Z,0.00
2023-03-31T06:27:39.012Z,0.00
2023-03-31T06:28:38.996Z,0.00
2023-03-31T06:29:38.986Z,0.00
2023-03-31T06:30:38.970Z,0.00
2023-03-31T06:31:39.036Z,0.00
2023-03-31T06:32:39.025Z,0.00
2023-03-31T06:33:38.939Z,0.00
2023-03-31T06:34:38.925Z,0.00
2023-03-31T06:35:38.921Z,0.00
2023-03-31T06:36:38.895Z,0.00
2023-03-31T06:37:38.882Z,0.00
2023-03-31T06:38:38.866Z,0.00
2023-03-31T06:39:38.863Z,0.00
2023-03-31T06:40:38.841Z,0.00
2023-03-31T06:41:38.871Z,0.00
2023-03-31T06:42:38.820Z,0.00
2023-03-31T06:43:38.809Z,0.00
2023-03-31T06:44:38.794Z,0.00
2023-03-31T06:45:38.811Z,0.00
2023-03-31T06:46:38.827Z,0.00
2023-03-31T06:47:38.804Z,0.00
2023-03-31T06:48:38.756Z,0.58
2023-03-31T06:49:38.729Z,0.00
2023-03-31T06:50:38.713Z,0.00
2023-03-31T06:51:38.701Z,0.00
2023-03-31T06:52:38.694Z,0.00
2023-03-31T06:53:38.683Z,0.00
2023-03-31T06:54:38.662Z,0.00
2023-03-31T06:55:38.655Z,0.00
2023-03-31T06:56:38.643Z,1.11
2023-03-31T06:57:38.654Z,1.43
2023-03-31T06:58:38.649Z,1.43
2023-03-31T06:59:38.610Z,0.00
2023-03-31T07:00:38.598Z,1.75
2023-03-31T07:01:38.598Z,1.96
2023-03-31T07:02:38.824Z,1.22
2023-03-31T07:03:38.580Z,0.00
2023-03-31T07:04:38.536Z,1.64
2023-03-31T07:05:38.527Z,0.00
2023-03-31T07:06:38.511Z,0.00
2023-03-31T07:07:38.506Z,0.00
2023-03-31T07:08:38.486Z,0.00
2023-03-31T07:09:38.479Z,0.00
2023-03-31T07:10:38.464Z,0.00
2023-03-31T07:11:38.445Z,0.00
2023-03-31T07:12:38.436Z,0.00
2023-03-31T07:13:38.460Z,0.00
2023-03-31T07:14:38.412Z,0.00
2023-03-31T07:15:38.390Z,0.00
2023-03-31T07:16:38.594Z,0.00
2023-03-31T07:17:38.381Z,0.00
2023-03-31T07:18:41.239Z,0.00
2023-03-31T07:19:38.340Z,0.00
2023-03-31T07:20:38.332Z,0.00
2023-03-31T07:21:38.310Z,0.00
2023-03-31T07:22:38.300Z,0.00
2023-03-31T07:23:38.291Z,0.00
2023-03-31T07:24:38.268Z,0.00
2023-03-31T07:25:38.254Z,0.00
2023-03-31T07:26:38.255Z,0.00
2023-03-31T07:27:38.236Z,0.00
2023-03-31T07:28:38.215Z,0.00
2023-03-31T07:29:38.239Z,0.00
2023-03-31T07:30:38.191Z,0.00
2023-03-31T07:31:38.229Z,0.00
2023-03-31T07:32:38.197Z,0.00
2023-03-31T07:33:38.149Z,0.00
2023-03-31T07:34:38.137Z,0.00
2023-03-31T07:35:38.176Z,0.00
2023-03-31T07:36:38.140Z,0.00
2023-03-31T07:37:38.100Z,0.00
2023-03-31T07:38:38.090Z,0.00
2023-03-31T07:40:38.063Z,1.54
2023-03-31T07:41:38.048Z,0.00
2023-03-31T07:42:38.034Z,0.00
2023-03-31T07:43:38.020Z,0.00
2023-03-31T07:44:38.020Z,0.00
2023-03-31T07:45:38.050Z,0.00
2023-03-31T07:46:38.072Z,0.00
2023-03-31T07:47:38.004Z,0.00
2023-03-31T07:48:37.958Z,0.00
2023-03-31T07:49:37.943Z,0.00
2023-03-31T07:50:37.930Z,0.00
2023-03-31T07:51:37.917Z,0.00
2023-03-31T07:52:37.903Z,0.00
2023-03-31T07:53:37.891Z,0.00
2023-03-31T07:54:37.886Z,0.00
2023-03-31T07:55:37.864Z,0.00
2023-03-31T07:56:37.851Z,0.79
2023-03-31T07:57:37.839Z,0.00
2023-03-31T07:58:37.833Z,0.00
2023-03-31T07:59:37.817Z,0.00
2023-03-31T08:00:37.802Z,0.00
2023-03-31T08:01:37.920Z,0.00
2023-03-31T08:02:38.002Z,0.00
2023-03-31T08:03:37.798Z,0.00
2023-03-31T08:04:37.807Z,0.00
2023-03-31T08:05:37.741Z,0.47
2023-03-31T08:06:37.735Z,0.00
2023-03-31T08:07:37.713Z,0.00
2023-03-31T08:08:37.707Z,0.00
2023-03-31T08:09:37.687Z,0.79
2023-03-31T08:10:37.695Z,1.22
2023-03-31T08:11:37.664Z,1.22
2023-03-31T08:12:37.648Z,3.60
2023-03-31T08:13:37.668Z,3.40
2023-03-31T08:14:41.170Z,3.60
2023-03-31T08:15:37.620Z,3.40
2023-03-31T08:16:37.627Z,2.79
2023-03-31T08:17:37.623Z,2.79
2023-03-31T08:18:37.568Z,2.58
2023-03-31T08:19:37.558Z,2.17
2023-03-31T08:20:37.545Z,1.96
2023-03-31T08:21:37.527Z,2.27
2023-03-31T08:22:37.519Z,1.96
2023-03-31T08:23:37.505Z,2.38
2023-03-31T08:24:37.491Z,3.09
2023-03-31T08:25:37.475Z,2.27
2023-03-31T08:26:37.464Z,4.10
2023-03-31T08:27:37.456Z,2.27
2023-03-31T08:28:37.439Z,2.38
2023-03-31T08:29:37.424Z,2.58
2023-03-31T08:30:37.419Z,2.06
2023-03-31T08:31:37.419Z,2.79
2023-03-31T08:32:37.418Z,2.58
2023-03-31T08:33:37.401Z,2.79
2023-03-31T08:34:37.361Z,2.58
2023-03-31T08:35:37.378Z,2.48
2023-03-31T08:36:37.334Z,2.48
2023-03-31T08:37:37.319Z,2.58
2023-03-31T08:38:37.314Z,2.58
2023-03-31T08:39:37.333Z,2.38
2023-03-31T08:40:37.280Z,2.89
2023-03-31T08:41:37.268Z,2.38
2023-03-31T08:42:37.278Z,3.90
2023-03-31T08:43:37.243Z,4.69
2023-03-31T08:44:37.228Z,2.06
2023-03-31T08:45:37.249Z,3.30
2023-03-31T08:46:37.239Z,1.75
2023-03-31T08:47:37.222Z,4.79
2023-03-31T08:48:37.176Z,4.30
2023-03-31T08:49:37.189Z,4.30
2023-03-31T08:50:37.153Z,3.90
2023-03-31T08:51:37.134Z,2.89
2023-03-31T08:52:37.124Z,4.40
2023-03-31T08:53:37.110Z,3.60
2023-03-31T08:54:37.113Z,3.90
2023-03-31T08:55:37.087Z,3.70
2023-03-31T08:56:37.074Z,4.50
2023-03-31T08:57:37.061Z,4.10
2023-03-31T08:58:37.083Z,2.99
2023-03-31T08:59:37.035Z,2.58
2023-03-31T09:00:37.023Z,3.40
2023-03-31T09:01:44.394Z,4.10
2023-03-31T09:02:37.117Z,4.50
2023-03-31T09:03:37.157Z,2.99
2023-03-31T09:04:36.976Z,3.50
2023-03-31T09:05:46.011Z,6.23
2023-03-31T09:06:38.946Z,3.09
2023-03-31T09:07:36.945Z,4.99
2023-03-31T09:08:36.930Z,4.50
2023-03-31T09:09:36.905Z,3.60
2023-03-31T09:10:36.941Z,4.69
2023-03-31T09:11:36.908Z,5.66
2023-03-31T09:12:36.882Z,4.50
2023-03-31T09:13:36.862Z,3.70
2023-03-31T09:14:36.854Z,3.70
2023-03-31T09:15:36.830Z,3.50
2023-03-31T09:16:36.877Z,5.57
2023-03-31T09:17:36.851Z,3.80
2023-03-31T09:18:36.794Z,3.60
2023-03-31T09:19:36.777Z,4.20
2023-03-31T09:20:36.782Z,5.08
2023-03-31T09:21:36.779Z,4.99
2023-03-31T09:22:36.743Z,5.18
2023-03-31T09:23:36.733Z,5.18
2023-03-31T09:24:36.744Z,5.08
2023-03-31T09:25:36.705Z,4.99
2023-03-31T09:26:36.683Z,6.23
2023-03-31T09:27:36.671Z,5.28
2023-03-31T09:28:36.676Z,6.52
2023-03-31T09:29:36.817Z,4.00
2023-03-31T09:30:36.643Z,4.40
2023-03-31T09:31:36.644Z,4.40
2023-03-31T09:32:36.665Z,3.90
2023-03-31T09:33:36.595Z,3.09
2023-03-31T09:34:36.614Z,3.80
2023-03-31T09:35:36.585Z,4.40
2023-03-31T09:36:36.567Z,3.40
2023-03-31T09:37:36.574Z,4.00
2023-03-31T09:38:36.538Z,4.00
2023-03-31T09:39:36.531Z,3.20
2023-03-31T09:40:36.510Z,3.90
2023-03-31T09:41:36.487Z,2.89
2023-03-31T09:42:36.507Z,3.09
2023-03-31T09:43:36.463Z,2.58
2023-03-31T09:44:36.455Z,2.58
2023-03-31T09:45:36.447Z,2.38
2023-03-31T09:46:36.495Z,2.06
2023-03-31T09:47:36.455Z,2.38
2023-03-31T09:48:36.398Z,7.35
2023-03-31T09:49:36.391Z,3.70
2023-03-31T09:50:36.386Z,3.09
2023-03-31T09:51:36.362Z,3.09
2023-03-31T09:52:36.355Z,3.50
2023-03-31T09:53:36.362Z,3.40
2023-03-31T09:54:36.325Z,0.00
2023-03-31T09:55:39.534Z,0.00
2023-03-31T09:56:36.305Z,0.00
2023-03-31T09:57:36.516Z,1.43
2023-03-31T09:58:36.278Z,0.00
2023-03-31T09:59:36.255Z,2.38
2023-03-31T10:00:36.253Z,0.00
2023-03-31T10:01:36.272Z,0.00
2023-03-31T10:02:36.274Z,0.00
2023-03-31T10:03:36.301Z,0.68
2023-03-31T10:04:36.262Z,0.68
2023-03-31T10:05:36.190Z,6.98
2023-03-31T10:06:36.168Z,3.80
2023-03-31T10:07:36.156Z,3.30
2023-03-31T10:08:36.141Z,2.69
2023-03-31T10:09:36.170Z,5.57
2023-03-31T10:10:36.120Z,4.40
2023-03-31T10:11:36.106Z,8.71
2023-03-31T10:12:36.089Z,5.95
2023-03-31T10:13:36.075Z,7.81
2023-03-31T10:14:36.073Z,7.08
2023-03-31T10:15:36.070Z,7.08
2023-03-31T10:16:36.037Z,6.23
2023-03-31T10:17:46.968Z,5.28
2023-03-31T10:18:36.093Z,4.99
2023-03-31T10:19:36.008Z,2.58
2023-03-31T10:20:35.994Z,1.33
2023-03-31T10:21:35.972Z,2.38
2023-03-31T10:22:35.969Z,2.48
2023-03-31T10:23:35.985Z,2.17
2023-03-31T10:24:35.947Z,2.06
2023-03-31T10:25:35.944Z,1.01
2023-03-31T10:26:35.930Z,1.33
2023-03-31T10:27:35.927Z,2.06
2023-03-31T10:28:35.905Z,3.70
2023-03-31T10:29:35.876Z,1.75
2023-03-31T10:30:35.862Z,1.64
2023-03-31T10:31:35.886Z,1.96
2023-03-31T10:32:35.849Z,0.00
2023-03-31T10:33:35.881Z,0.00
2023-03-31T10:34:35.812Z,0.79
2023-03-31T10:35:35.804Z,0.00
2023-03-31T10:36:35.788Z,2.89
2023-03-31T10:37:35.773Z,1.96
2023-03-31T10:38:35.773Z,2.06
2023-03-31T10:39:35.736Z,3.20
2023-03-31T10:40:35.745Z,1.64
2023-03-31T10:41:35.739Z,1.85
2023-03-31T10:42:35.699Z,1.85
2023-03-31T10:43:35.685Z,2.89
2023-03-31T10:44:35.676Z,1.96
2023-03-31T10:45:38.242Z,1.11
2023-03-31T10:46:35.651Z,1.33
2023-03-31T10:47:35.695Z,1.75
2023-03-31T10:48:35.624Z,0.90
2023-03-31T10:49:35.602Z,0.90
2023-03-31T10:50:35.590Z,0.90
2023-03-31T10:51:35.580Z,0.79
2023-03-31T10:52:35.569Z,1.11
2023-03-31T10:53:35.552Z,0.68
2023-03-31T10:54:35.546Z,1.01
2023-03-31T10:55:35.534Z,1.85
2023-03-31T10:56:35.509Z,0.90
2023-03-31T10:57:35.601Z,2.27
2023-03-31T10:58:35.487Z,3.30
2023-03-31T10:59:35.493Z,1.54
2023-03-31T11:00:35.461Z,1.43
2023-03-31T11:01:35.497Z,1.96
2023-03-31T11:02:35.486Z,2.06
2023-03-31T11:03:35.487Z,1.01
2023-03-31T11:04:35.413Z,1.43
2023-03-31T11:05:35.405Z,2.79
2023-03-31T11:06:35.389Z,3.80
2023-03-31T11:07:35.374Z,1.96
2023-03-31T11:08:35.360Z,2.17
2023-03-31T11:09:35.349Z,1.54
2023-03-31T11:10:35.348Z,2.99
2023-03-31T11:11:35.322Z,3.40
2023-03-31T11:12:35.317Z,1.64
2023-03-31T11:13:35.350Z,1.64
2023-03-31T11:14:35.307Z,3.20
2023-03-31T11:15:35.319Z,2.38
2023-03-31T11:16:35.341Z,1.75
2023-03-31T11:17:35.269Z,2.27
2023-03-31T11:18:35.242Z,1.43
2023-03-31T11:19:35.226Z,1.33
2023-03-31T11:20:35.214Z,1.64
2023-03-31T11:21:35.196Z,2.27
2023-03-31T11:22:35.183Z,1.43
2023-03-31T11:23:35.169Z,1.96
2023-03-31T11:24:35.159Z,3.50
2023-03-31T11:25:35.143Z,1.64
2023-03-31T11:26:35.132Z,1.33
2023-03-31T11:27:35.120Z,2.06
2023-03-31T11:28:35.105Z,2.48
2023-03-31T11:29:35.122Z,1.33
2023-03-31T11:30:35.086Z,3.60
2023-03-31T11:31:35.114Z,3.90
2023-03-31T11:32:35.081Z,2.69
2023-03-31T11:33:35.042Z,1.54
2023-03-31T11:34:35.024Z,1.11
2023-03-31T11:35:35.034Z,3.90
2023-03-31T11:36:35.002Z,1.75
2023-03-31T11:37:34.990Z,3.80
2023-03-31T11:38:34.974Z,4.50
2023-03-31T11:39:35.007Z,2.89
2023-03-31T11:40:34.947Z,3.20
2023-03-31T11:41:34.949Z,1.96
2023-03-31T11:42:34.923Z,2.99
2023-03-31T11:43:34.915Z,5.08
2023-03-31T11:44:34.899Z,4.10
2023-03-31T11:45:34.924Z,4.00
2023-03-31T11:46:34.892Z,2.38
2023-03-31T11:47:34.963Z,2.48
2023-03-31T11:48:34.844Z,2.69
2023-03-31T11:49:34.834Z,1.22
2023-03-31T11:50:34.823Z,1.43
2023-03-31T11:51:34.814Z,3.80
2023-03-31T11:52:34.793Z,3.60
2023-03-31T11:53:34.779Z,3.50
2023-03-31T11:54:34.770Z,2.99
2023-03-31T11:55:34.754Z,4.50
2023-03-31T11:56:34.744Z,1.85
2023-03-31T11:57:34.786Z,4.30
2023-03-31T11:58:34.713Z,4.89
2023-03-31T11:59:34.716Z,2.89
2023-03-31T12:00:34.687Z,1.96
2023-03-31T12:01:34.705Z,6.23
2023-03-31T12:02:34.696Z,7.17
2023-03-31T12:03:34.662Z,3.80
2023-03-31T12:04:34.644Z,1.64
2023-03-31T12:05:34.691Z,2.27
2023-03-31T12:06:34.613Z,2.99
2023-03-31T12:07:34.597Z,1.64
2023-03-31T12:08:34.601Z,1.85
2023-03-31T12:09:34.572Z,2.06
2023-03-31T12:10:34.561Z,2.48
2023-03-31T12:11:34.554Z,1.11
2023-03-31T12:12:34.538Z,0.79
2023-03-31T12:13:34.566Z,2.48
2023-03-31T12:14:34.508Z,1.01
2023-03-31T12:16:34.617Z,0.47
2023-03-31T12:17:34.558Z,0.58
2023-03-31T12:18:34.457Z,1.01
2023-03-31T12:19:34.447Z,1.85
2023-03-31T12:20:34.428Z,2.48
2023-03-31T12:21:34.430Z,2.79
2023-03-31T12:22:34.422Z,2.58
2023-03-31T12:23:34.396Z,5.37
2023-03-31T12:24:34.398Z,2.99
2023-03-31T12:25:34.369Z,2.69
2023-03-31T12:26:34.348Z,1.11
2023-03-31T12:27:34.335Z,2.79
2023-03-31T12:28:34.340Z,1.64
2023-03-31T12:29:34.317Z,2.58
2023-03-31T12:30:34.302Z,1.54
2023-03-31T12:31:34.301Z,0.90
2023-03-31T12:32:34.322Z,0.68
2023-03-31T12:33:34.358Z,0.90
2023-03-31T12:34:34.250Z,0.90
2023-03-31T12:35:34.303Z,1.54
2023-03-31T12:36:34.224Z,0.90
2023-03-31T12:37:34.214Z,0.68
2023-03-31T12:38:34.204Z,0.47
2023-03-31T12:39:34.190Z,1.85
2023-03-31T12:40:34.172Z,2.58
2023-03-31T12:41:34.170Z,1.22
2023-03-31T12:42:34.145Z,2.17
2023-03-31T12:43:34.134Z,1.64
2023-03-31T12:44:34.121Z,1.75
2023-03-31T12:45:34.108Z,1.75
2023-03-31T12:46:34.113Z,2.06
2023-03-31T12:47:34.112Z,2.17
2023-03-31T12:48:34.070Z,1.33
2023-03-31T12:49:34.083Z,2.79
2023-03-31T12:50:34.044Z,2.58
2023-03-31T12:51:34.030Z,1.22
2023-03-31T12:52:34.015Z,2.38
2023-03-31T12:53:34.004Z,1.11
2023-03-31T12:54:34.002Z,0.47
2023-03-31T12:55:33.983Z,2.17
2023-03-31T12:56:33.969Z,1.22
2023-03-31T12:57:33.984Z,2.58
2023-03-31T12:58:33.946Z,1.01
2023-03-31T12:59:33.925Z,1.33
2023-03-31T13:00:33.930Z,1.96
2023-03-31T13:01:34.112Z,0.58
2023-03-31T13:02:33.950Z,1.11
2023-03-31T13:03:33.903Z,1.64
2023-03-31T13:04:33.857Z,0.00
2023-03-31T13:05:33.873Z,2.17
2023-03-31T13:06:33.835Z,1.64
2023-03-31T13:07:33.834Z,2.17
2023-03-31T13:08:33.808Z,2.89
2023-03-31T13:09:33.806Z,2.06
2023-03-31T13:10:33.814Z,1.64
2023-03-31T13:11:33.772Z,1.54
2023-03-31T13:12:33.761Z,1.11
2023-03-31T13:13:33.743Z,1.54
2023-03-31T13:14:33.729Z,2.48
2023-03-31T13:15:33.723Z,1.22
2023-03-31T13:16:33.764Z,1.96
2023-03-31T13:17:33.711Z,0.90
2023-03-31T13:18:33.674Z,0.68
2023-03-31T13:19:33.675Z,1.54
2023-03-31T13:20:33.648Z,3.50
2023-03-31T13:21:33.661Z,0.00
2023-03-31T13:22:33.624Z,1.64
2023-03-31T13:23:33.661Z,2.89